sensor_id;sensor_type;location;lat;lon;timestamp;temperature;humidity
59469;DHT22;45277;52.768;18.262;2023-09-08T00:00:01;13.50;99.90
59469;DHT22;45277;52.768;18.262;2023-09-08T00:01:33;13.50;99.90
59469;DHT22;45277;52.768;18.262;2023-09-08T00:03:05;13.50;99.90
59469;DHT22;45277;52.768;18.262;2023-09-08T00:04:36;13.40;99.90
59469;DHT22;45277;52.768;18.262;2023-09-08T00:06:08;13.40;99.90
59469;DHT22;45277;52.768;18.262;2023-09-08T00:07:39;13.30;99.90
59469;DHT22;45277;52.768;18.262;2023-09-08T00:09:10;13.30;99.90
59469;DHT22;45277;52.768;18.262;2023-09-08T00:10:42;13.30;99.90
59469;DHT22;45277;52.768;18.262;2023-09-08T00:12:13;13.30;99.90
59469;DHT22;45277;52.768;18.262;2023-09-08T00:13:44;13.30;99.90
59469;DHT22;45277;52.768;18.262;2023-09-08T00:15:16;13.30;99.90
59469;DHT22;45277;52.768;18.262;2023-09-08T00:16:47;13.30;99.90
59469;DHT22;45277;52.768;18.262;2023-09-08T00:18:19;13.30;99.90
59469;DHT22;45277;52.768;18.262;2023-09-08T00:19:50;13.30;99.90
59469;DHT22;45277;52.768;18.262;2023-09-08T00:21:22;13.30;99.90
59469;DHT22;45277;52.768;18.262;2023-09-08T00:22:53;13.20;99.90
59469;DHT22;45277;52.768;18.262;2023-09-08T00:24:25;13.20;99.90
59469;DHT22;45277;52.768;18.262;2023-09-08T00:25:56;13.20;99.90
59469;DHT22;45277;52.768;18.262;2023-09-08T00:27:28;13.10;99.90
59469;DHT22;45277;52.768;18.262;2023-09-08T00:28:59;13.10;99.90
59469;DHT22;45277;52.768;18.262;2023-09-08T00:30:31;13.10;99.90
59469;DHT22;45277;52.768;18.262;2023-09-08T00:32:02;13.10;99.90
59469;DHT22;45277;52.768;18.262;2023-09-08T00:33:33;13.10;99.90
59469;DHT22;45277;52.768;18.262;2023-09-08T00:35:11;13.10;99.90
59469;DHT22;45277;52.768;18.262;2023-09-08T00:36:42;13.10;99.90
59469;DHT22;45277;52.768;18.262;2023-09-08T00:38:14;13.10;99.90
59469;DHT22;45277;52.768;18.262;2023-09-08T00:39:45;13.10;99.90
59469;DHT22;45277;52.768;18.262;2023-09-08T00:41:16;13.00;99.90
59469;DHT22;45277;52.768;18.262;2023-09-08T00:42:48;13.00;99.90
59469;DHT22;45277;52.768;18.262;2023-09-08T00:44:19;13.00;99.90
59469;DHT22;45277;52.768;18.262;2023-09-08T00:45:50;13.00;99.90
59469;DHT22;45277;52.768;18.262;2023-09-08T00:47:22;12.90;99.90
59469;DHT22;45277;52.768;18.262;2023-09-08T00:48:55;12.90;99.90
59469;DHT22;45277;52.768;18.262;2023-09-08T00:50:26;12.90;99.90
59469;DHT22;45277;52.768;18.262;2023-09-08T00:51:58;12.90;99.90
59469;DHT22;45277;52.768;18.262;2023-09-08T00:53:30;12.90;99.90
59469;DHT22;45277;52.768;18.262;2023-09-08T00:55:01;12.90;99.90
59469;DHT22;45277;52.768;18.262;2023-09-08T00:56:34;12.90;99.90
59469;DHT22;45277;52.768;18.262;2023-09-08T00:58:05;13.00;99.90
59469;DHT22;45277;52.768;18.262;2023-09-08T00:59:37;13.00;99.90
59469;DHT22;45277;52.768;18.262;2023-09-08T01:01:09;13.00;99.90
59469;DHT22;45277;52.768;18.262;2023-09-08T01:02:40;13.00;99.90
59469;DHT22;45277;52.768;18.262;2023-09-08T01:04:11;13.00;99.90
59469;DHT22;45277;52.768;18.262;2023-09-08T01:05:43;13.00;99.90
59469;DHT22;45277;52.768;18.262;2023-09-08T01:07:19;12.90;99.90
59469;DHT22;45277;52.768;18.262;2023-09-08T01:08:52;12.90;99.90
59469;DHT22;45277;52.768;18.262;2023-09-08T01:10:24;12.80;99.90
59469;DHT22;45277;52.768;18.262;2023-09-08T01:11:55;12.80;99.90
59469;DHT22;45277;52.768;18.262;2023-09-08T01:13:31;12.80;99.90
59469;DHT22;45277;52.768;18.262;2023-09-08T01:15:03;12.80;99.90
59469;DHT22;45277;52.768;18.262;2023-09-08T01:16:38;12.80;99.90
59469;DHT22;45277;52.768;18.262;2023-09-08T01:18:11;12.80;99.90
59469;DHT22;45277;52.768;18.262;2023-09-08T01:19:44;12.70;99.90
59469;DHT22;45277;52.768;18.262;2023-09-08T01:23:28;12.70;99.90
59469;DHT22;45277;52.768;18.262;2023-09-08T01:25:17;12.70;99.90
59469;DHT22;45277;52.768;18.262;2023-09-08T01:26:50;12.70;99.90
59469;DHT22;45277;52.768;18.262;2023-09-08T01:28:21;12.70;99.90
59469;DHT22;45277;52.768;18.262;2023-09-08T01:29:55;12.70;99.90
59469;DHT22;45277;52.768;18.262;2023-09-08T01:31:26;12.70;99.90
59469;DHT22;45277;52.768;18.262;2023-09-08T01:32:58;12.80;99.90
59469;DHT22;45277;52.768;18.262;2023-09-08T01:34:30;12.80;99.90
59469;DHT22;45277;52.768;18.262;2023-09-08T01:36:02;12.80;99.90
59469;DHT22;45277;52.768;18.262;2023-09-08T01:37:33;12.80;99.90
59469;DHT22;45277;52.768;18.262;2023-09-08T01:39:05;12.80;99.90
59469;DHT22;45277;52.768;18.262;2023-09-08T01:40:36;12.70;99.90
59469;DHT22;45277;52.768;18.262;2023-09-08T01:42:07;12.70;99.90
59469;DHT22;45277;52.768;18.262;2023-09-08T01:43:39;12.70;99.90
59469;DHT22;45277;52.768;18.262;2023-09-08T01:45:10;12.70;99.90
59469;DHT22;45277;52.768;18.262;2023-09-08T01:46:41;12.70;99.90
59469;DHT22;45277;52.768;18.262;2023-09-08T01:48:13;12.60;99.90
59469;DHT22;45277;52.768;18.262;2023-09-08T01:49:44;12.60;99.90
59469;DHT22;45277;52.768;18.262;2023-09-08T01:51:16;12.70;99.90
59469;DHT22;45277;52.768;18.262;2023-09-08T01:52:48;12.80;99.90
59469;DHT22;45277;52.768;18.262;2023-09-08T01:54:19;12.90;99.90
59469;DHT22;45277;52.768;18.262;2023-09-08T01:55:50;12.80;99.90
59469;DHT22;45277;52.768;18.262;2023-09-08T01:57:22;12.80;99.90
59469;DHT22;45277;52.768;18.262;2023-09-08T01:58:53;12.70;99.90
59469;DHT22;45277;52.768;18.262;2023-09-08T02:00:24;12.70;99.90
59469;DHT22;45277;52.768;18.262;2023-09-08T02:01:56;12.70;99.90
59469;DHT22;45277;52.768;18.262;2023-09-08T02:03:27;12.70;99.90
59469;DHT22;45277;52.768;18.262;2023-09-08T02:04:58;12.70;99.90
59469;DHT22;45277;52.768;18.262;2023-09-08T02:06:30;12.70;99.90
59469;DHT22;45277;52.768;18.262;2023-09-08T02:08:02;12.70;99.90
59469;DHT22;45277;52.768;18.262;2023-09-08T02:09:36;12.70;99.90
59469;DHT22;45277;52.768;18.262;2023-09-08T02:11:08;12.60;99.90
59469;DHT22;45277;52.768;18.262;2023-09-08T02:12:39;12.50;99.90
59469;DHT22;45277;52.768;18.262;2023-09-08T02:14:10;12.60;99.90
59469;DHT22;45277;52.768;18.262;2023-09-08T02:15:42;12.60;99.90
59469;DHT22;45277;52.768;18.262;2023-09-08T02:17:13;12.60;99.90
59469;DHT22;45277;52.768;18.262;2023-09-08T02:18:45;12.50;99.90
59469;DHT22;45277;52.768;18.262;2023-09-08T02:20:17;12.50;99.90
59469;DHT22;45277;52.768;18.262;2023-09-08T02:21:48;12.40;99.90
59469;DHT22;45277;52.768;18.262;2023-09-08T02:23:19;12.40;99.90
59469;DHT22;45277;52.768;18.262;2023-09-08T02:24:51;12.40;99.90
59469;DHT22;45277;52.768;18.262;2023-09-08T02:26:22;12.40;99.90
59469;DHT22;45277;52.768;18.262;2023-09-08T02:27:54;12.40;99.90
59469;DHT22;45277;52.768;18.262;2023-09-08T02:29:26;12.40;99.90
59469;DHT22;45277;52.768;18.262;2023-09-08T02:30:57;12.40;99.90
59469;DHT22;45277;52.768;18.262;2023-09-08T02:32:28;12.50;99.90
59469;DHT22;45277;52.768;18.262;2023-09-08T02:34:00;12.50;99.90
59469;DHT22;45277;52.768;18.262;2023-09-08T02:35:36;12.40;99.90
59469;DHT22;45277;52.768;18.262;2023-09-08T02:37:08;12.40;99.90
59469;DHT22;45277;52.768;18.262;2023-09-08T02:38:40;12.40;99.90
59469;DHT22;45277;52.768;18.262;2023-09-08T02:40:11;12.40;99.90
59469;DHT22;45277;52.768;18.262;2023-09-08T02:41:42;12.40;99.90
59469;DHT22;45277;52.768;18.262;2023-09-08T02:43:14;12.40;99.90
59469;DHT22;45277;52.768;18.262;2023-09-08T02:44:45;12.30;99.90
59469;DHT22;45277;52.768;18.262;2023-09-08T02:46:17;12.30;99.90
59469;DHT22;45277;52.768;18.262;2023-09-08T02:47:49;12.30;99.90
59469;DHT22;45277;52.768;18.262;2023-09-08T02:49:20;12.30;99.90
59469;DHT22;45277;52.768;18.262;2023-09-08T02:50:51;12.30;99.90
59469;DHT22;45277;52.768;18.262;2023-09-08T02:52:25;12.30;99.90
59469;DHT22;45277;52.768;18.262;2023-09-08T02:53:56;12.40;99.90
59469;DHT22;45277;52.768;18.262;2023-09-08T02:55:27;12.30;99.90
59469;DHT22;45277;52.768;18.262;2023-09-08T02:56:59;12.30;99.90
59469;DHT22;45277;52.768;18.262;2023-09-08T02:58:30;12.30;99.90
59469;DHT22;45277;52.768;18.262;2023-09-08T03:00:05;12.20;99.90
59469;DHT22;45277;52.768;18.262;2023-09-08T03:01:36;12.20;99.90
59469;DHT22;45277;52.768;18.262;2023-09-08T03:03:08;12.10;99.90
59469;DHT22;45277;52.768;18.262;2023-09-08T03:04:39;12.10;99.90
59469;DHT22;45277;52.768;18.262;2023-09-08T03:06:11;12.10;99.90
59469;DHT22;45277;52.768;18.262;2023-09-08T03:07:43;12.10;99.90
59469;DHT22;45277;52.768;18.262;2023-09-08T03:09:14;12.10;99.90
59469;DHT22;45277;52.768;18.262;2023-09-08T03:10:45;12.10;99.90
59469;DHT22;45277;52.768;18.262;2023-09-08T03:12:16;12.10;99.90
59469;DHT22;45277;52.768;18.262;2023-09-08T03:13:48;12.20;99.90
59469;DHT22;45277;52.768;18.262;2023-09-08T03:15:20;12.20;99.90
59469;DHT22;45277;52.768;18.262;2023-09-08T03:16:51;12.20;99.90
59469;DHT22;45277;52.768;18.262;2023-09-08T03:18:23;12.20;99.90
59469;DHT22;45277;52.768;18.262;2023-09-08T03:19:54;12.20;99.90
59469;DHT22;45277;52.768;18.262;2023-09-08T03:21:25;12.20;99.90
59469;DHT22;45277;52.768;18.262;2023-09-08T03:22:57;12.20;99.90
59469;DHT22;45277;52.768;18.262;2023-09-08T03:24:28;12.10;99.90
59469;DHT22;45277;52.768;18.262;2023-09-08T03:25:59;12.20;99.90
59469;DHT22;45277;52.768;18.262;2023-09-08T03:27:31;12.10;99.90
59469;DHT22;45277;52.768;18.262;2023-09-08T03:29:02;12.10;99.90
59469;DHT22;45277;52.768;18.262;2023-09-08T03:30:34;12.10;99.90
59469;DHT22;45277;52.768;18.262;2023-09-08T03:32:05;12.20;99.90
59469;DHT22;45277;52.768;18.262;2023-09-08T03:33:37;12.20;99.90
59469;DHT22;45277;52.768;18.262;2023-09-08T03:35:08;12.30;99.90
59469;DHT22;45277;52.768;18.262;2023-09-08T03:36:40;12.30;99.90
59469;DHT22;45277;52.768;18.262;2023-09-08T03:38:11;12.30;99.90
59469;DHT22;45277;52.768;18.262;2023-09-08T03:39:43;12.20;99.90
59469;DHT22;45277;52.768;18.262;2023-09-08T03:41:14;12.20;99.90
59469;DHT22;45277;52.768;18.262;2023-09-08T03:42:46;12.10;99.90
59469;DHT22;45277;52.768;18.262;2023-09-08T03:44:17;12.00;99.90
59469;DHT22;45277;52.768;18.262;2023-09-08T03:45:48;12.00;99.90
59469;DHT22;45277;52.768;18.262;2023-09-08T03:47:20;12.00;99.90
59469;DHT22;45277;52.768;18.262;2023-09-08T03:48:51;11.90;99.90
59469;DHT22;45277;52.768;18.262;2023-09-08T03:50:25;11.90;99.90
59469;DHT22;45277;52.768;18.262;2023-09-08T03:51:57;11.90;99.90
59469;DHT22;45277;52.768;18.262;2023-09-08T03:53:29;11.90;99.90
59469;DHT22;45277;52.768;18.262;2023-09-08T03:55:00;11.90;99.90
59469;DHT22;45277;52.768;18.262;2023-09-08T03:56:31;11.90;99.90
59469;DHT22;45277;52.768;18.262;2023-09-08T03:58:03;11.90;99.90
59469;DHT22;45277;52.768;18.262;2023-09-08T03:59:34;11.90;99.90
59469;DHT22;45277;52.768;18.262;2023-09-08T04:01:06;11.90;99.90
59469;DHT22;45277;52.768;18.262;2023-09-08T04:02:37;11.90;99.90
59469;DHT22;45277;52.768;18.262;2023-09-08T04:04:08;11.90;99.90
59469;DHT22;45277;52.768;18.262;2023-09-08T04:05:40;11.90;99.90
59469;DHT22;45277;52.768;18.262;2023-09-08T04:07:11;11.90;99.90
59469;DHT22;45277;52.768;18.262;2023-09-08T04:08:42;11.90;99.90
59469;DHT22;45277;52.768;18.262;2023-09-08T04:10:14;11.90;99.90
59469;DHT22;45277;52.768;18.262;2023-09-08T04:11:45;11.90;99.90
59469;DHT22;45277;52.768;18.262;2023-09-08T04:13:17;11.80;99.90
59469;DHT22;45277;52.768;18.262;2023-09-08T04:14:48;11.80;99.90
59469;DHT22;45277;52.768;18.262;2023-09-08T04:16:20;11.80;99.90
59469;DHT22;45277;52.768;18.262;2023-09-08T04:17:51;11.70;99.90
59469;DHT22;45277;52.768;18.262;2023-09-08T04:19:23;11.70;99.90
59469;DHT22;45277;52.768;18.262;2023-09-08T04:20:54;11.70;99.90
59469;DHT22;45277;52.768;18.262;2023-09-08T04:22:25;11.70;99.90
59469;DHT22;45277;52.768;18.262;2023-09-08T04:23:57;11.70;99.90
59469;DHT22;45277;52.768;18.262;2023-09-08T04:25:29;11.80;99.90
59469;DHT22;45277;52.768;18.262;2023-09-08T04:27:00;11.90;99.90
59469;DHT22;45277;52.768;18.262;2023-09-08T04:28:32;12.00;99.90
59469;DHT22;45277;52.768;18.262;2023-09-08T04:30:04;12.00;99.90
59469;DHT22;45277;52.768;18.262;2023-09-08T04:31:36;12.10;99.90
59469;DHT22;45277;52.768;18.262;2023-09-08T04:33:08;12.10;99.90
59469;DHT22;45277;52.768;18.262;2023-09-08T04:34:40;12.10;99.90
59469;DHT22;45277;52.768;18.262;2023-09-08T04:36:12;12.20;99.90
59469;DHT22;45277;52.768;18.262;2023-09-08T04:37:44;12.20;99.90
59469;DHT22;45277;52.768;18.262;2023-09-08T04:39:16;12.20;99.90
59469;DHT22;45277;52.768;18.262;2023-09-08T04:40:47;12.20;99.90
59469;DHT22;45277;52.768;18.262;2023-09-08T04:42:19;12.20;99.90
59469;DHT22;45277;52.768;18.262;2023-09-08T04:43:50;12.30;99.90
59469;DHT22;45277;52.768;18.262;2023-09-08T04:45:21;12.30;99.90
59469;DHT22;45277;52.768;18.262;2023-09-08T04:46:53;12.30;99.90
59469;DHT22;45277;52.768;18.262;2023-09-08T04:48:25;12.40;99.90
59469;DHT22;45277;52.768;18.262;2023-09-08T04:49:56;12.40;99.90
59469;DHT22;45277;52.768;18.262;2023-09-08T04:51:28;12.50;99.90
59469;DHT22;45277;52.768;18.262;2023-09-08T04:52:59;12.50;99.90
59469;DHT22;45277;52.768;18.262;2023-09-08T04:54:30;12.70;99.90
59469;DHT22;45277;52.768;18.262;2023-09-08T04:56:03;12.70;99.90
59469;DHT22;45277;52.768;18.262;2023-09-08T04:57:34;12.80;99.90
59469;DHT22;45277;52.768;18.262;2023-09-08T04:59:06;12.80;99.90
59469;DHT22;45277;52.768;18.262;2023-09-08T05:00:38;12.80;99.90
59469;DHT22;45277;52.768;18.262;2023-09-08T05:02:12;12.80;99.90
59469;DHT22;45277;52.768;18.262;2023-09-08T05:03:44;12.90;99.90
59469;DHT22;45277;52.768;18.262;2023-09-08T05:05:16;12.90;99.90
59469;DHT22;45277;52.768;18.262;2023-09-08T05:06:48;13.00;99.90
59469;DHT22;45277;52.768;18.262;2023-09-08T05:08:19;13.00;99.90
59469;DHT22;45277;52.768;18.262;2023-09-08T05:09:51;13.10;99.90
59469;DHT22;45277;52.768;18.262;2023-09-08T05:11:22;13.10;99.90
59469;DHT22;45277;52.768;18.262;2023-09-08T05:12:54;13.20;99.90
59469;DHT22;45277;52.768;18.262;2023-09-08T05:14:26;13.30;99.90
59469;DHT22;45277;52.768;18.262;2023-09-08T05:15:57;13.40;99.90
59469;DHT22;45277;52.768;18.262;2023-09-08T05:17:31;13.40;99.90
59469;DHT22;45277;52.768;18.262;2023-09-08T05:19:03;13.50;99.90
59469;DHT22;45277;52.768;18.262;2023-09-08T05:20:35;13.60;99.90
59469;DHT22;45277;52.768;18.262;2023-09-08T05:22:06;13.70;99.90
59469;DHT22;45277;52.768;18.262;2023-09-08T05:23:38;13.80;99.90
59469;DHT22;45277;52.768;18.262;2023-09-08T05:25:09;13.80;99.90
59469;DHT22;45277;52.768;18.262;2023-09-08T05:26:41;13.90;99.90
59469;DHT22;45277;52.768;18.262;2023-09-08T05:28:12;14.00;99.90
59469;DHT22;45277;52.768;18.262;2023-09-08T05:29:47;14.10;99.90
59469;DHT22;45277;52.768;18.262;2023-09-08T05:31:24;14.20;99.90
59469;DHT22;45277;52.768;18.262;2023-09-08T05:32:57;14.30;99.90
59469;DHT22;45277;52.768;18.262;2023-09-08T05:34:29;14.30;99.90
59469;DHT22;45277;52.768;18.262;2023-09-08T05:36:00;14.40;99.90
59469;DHT22;45277;52.768;18.262;2023-09-08T05:37:31;14.50;99.90
59469;DHT22;45277;52.768;18.262;2023-09-08T05:39:03;14.60;99.90
59469;DHT22;45277;52.768;18.262;2023-09-08T05:40:35;14.60;99.90
59469;DHT22;45277;52.768;18.262;2023-09-08T05:42:06;14.70;99.90
59469;DHT22;45277;52.768;18.262;2023-09-08T05:43:38;14.80;99.90
59469;DHT22;45277;52.768;18.262;2023-09-08T05:45:09;14.80;99.90
59469;DHT22;45277;52.768;18.262;2023-09-08T05:46:40;14.90;99.90
59469;DHT22;45277;52.768;18.262;2023-09-08T05:48:12;15.00;99.90
59469;DHT22;45277;52.768;18.262;2023-09-08T05:49:43;15.00;99.90
59469;DHT22;45277;52.768;18.262;2023-09-08T05:51:14;15.00;99.90
59469;DHT22;45277;52.768;18.262;2023-09-08T05:52:46;15.10;99.90
59469;DHT22;45277;52.768;18.262;2023-09-08T05:54:17;15.10;99.90
59469;DHT22;45277;52.768;18.262;2023-09-08T05:55:49;15.20;99.90
59469;DHT22;45277;52.768;18.262;2023-09-08T05:57:21;15.20;99.90
59469;DHT22;45277;52.768;18.262;2023-09-08T05:58:52;15.30;99.90
59469;DHT22;45277;52.768;18.262;2023-09-08T06:00:23;15.40;99.90
59469;DHT22;45277;52.768;18.262;2023-09-08T06:01:55;15.40;99.90
59469;DHT22;45277;52.768;18.262;2023-09-08T06:03:26;15.50;99.90
59469;DHT22;45277;52.768;18.262;2023-09-08T06:04:58;15.50;99.90
59469;DHT22;45277;52.768;18.262;2023-09-08T06:06:29;15.60;99.90
59469;DHT22;45277;52.768;18.262;2023-09-08T06:08:01;15.70;99.90
59469;DHT22;45277;52.768;18.262;2023-09-08T06:09:32;15.70;99.90
59469;DHT22;45277;52.768;18.262;2023-09-08T06:11:04;15.80;99.90
59469;DHT22;45277;52.768;18.262;2023-09-08T06:12:35;15.90;99.90
59469;DHT22;45277;52.768;18.262;2023-09-08T06:14:06;15.90;99.90
59469;DHT22;45277;52.768;18.262;2023-09-08T06:15:38;16.00;99.90
59469;DHT22;45277;52.768;18.262;2023-09-08T06:17:10;16.10;99.90
59469;DHT22;45277;52.768;18.262;2023-09-08T06:18:41;16.10;99.90
59469;DHT22;45277;52.768;18.262;2023-09-08T06:20:13;16.20;99.90
59469;DHT22;45277;52.768;18.262;2023-09-08T06:21:45;16.30;99.90
59469;DHT22;45277;52.768;18.262;2023-09-08T06:23:19;16.40;99.90
59469;DHT22;45277;52.768;18.262;2023-09-08T06:24:51;16.40;99.90
59469;DHT22;45277;52.768;18.262;2023-09-08T06:26:22;16.60;99.90
59469;DHT22;45277;52.768;18.262;2023-09-08T06:27:54;16.70;99.90
59469;DHT22;45277;52.768;18.262;2023-09-08T06:29:25;16.80;99.90
59469;DHT22;45277;52.768;18.262;2023-09-08T06:30:57;16.90;99.90
59469;DHT22;45277;52.768;18.262;2023-09-08T06:32:28;17.00;99.90
59469;DHT22;45277;52.768;18.262;2023-09-08T06:34:00;17.00;99.90
59469;DHT22;45277;52.768;18.262;2023-09-08T06:35:32;17.10;99.90
59469;DHT22;45277;52.768;18.262;2023-09-08T06:37:04;17.20;99.90
59469;DHT22;45277;52.768;18.262;2023-09-08T06:38:36;17.30;99.90
59469;DHT22;45277;52.768;18.262;2023-09-08T06:40:07;17.30;99.90
59469;DHT22;45277;52.768;18.262;2023-09-08T06:41:39;17.40;99.90
59469;DHT22;45277;52.768;18.262;2023-09-08T06:43:11;17.40;99.90
59469;DHT22;45277;52.768;18.262;2023-09-08T06:44:42;17.50;99.90
59469;DHT22;45277;52.768;18.262;2023-09-08T06:46:13;17.60;99.90
59469;DHT22;45277;52.768;18.262;2023-09-08T06:47:46;17.70;99.90
59469;DHT22;45277;52.768;18.262;2023-09-08T06:49:17;17.80;99.90
59469;DHT22;45277;52.768;18.262;2023-09-08T06:50:52;17.90;99.90
59469;DHT22;45277;52.768;18.262;2023-09-08T06:52:25;18.00;99.90
59469;DHT22;45277;52.768;18.262;2023-09-08T06:53:57;18.10;99.90
59469;DHT22;45277;52.768;18.262;2023-09-08T06:55:29;18.20;99.90
59469;DHT22;45277;52.768;18.262;2023-09-08T06:57:01;18.40;99.90
59469;DHT22;45277;52.768;18.262;2023-09-08T06:58:32;18.50;99.90
59469;DHT22;45277;52.768;18.262;2023-09-08T07:00:04;18.60;99.90
59469;DHT22;45277;52.768;18.262;2023-09-08T07:01:38;18.70;99.90
59469;DHT22;45277;52.768;18.262;2023-09-08T07:03:09;18.80;99.90
59469;DHT22;45277;52.768;18.262;2023-09-08T07:04:41;18.90;99.90
59469;DHT22;45277;52.768;18.262;2023-09-08T07:06:12;19.10;99.90
59469;DHT22;45277;52.768;18.262;2023-09-08T07:07:44;19.20;99.90
59469;DHT22;45277;52.768;18.262;2023-09-08T07:09:15;19.30;99.90
59469;DHT22;45277;52.768;18.262;2023-09-08T07:10:52;19.40;99.90
59469;DHT22;45277;52.768;18.262;2023-09-08T07:12:25;19.50;99.90
59469;DHT22;45277;52.768;18.262;2023-09-08T07:13:56;19.70;99.90
59469;DHT22;45277;52.768;18.262;2023-09-08T07:15:28;19.80;99.90
59469;DHT22;45277;52.768;18.262;2023-09-08T07:17:00;19.90;99.90
59469;DHT22;45277;52.768;18.262;2023-09-08T07:18:31;20.00;99.90
59469;DHT22;45277;52.768;18.262;2023-09-08T07:20:07;20.20;99.90
59469;DHT22;45277;52.768;18.262;2023-09-08T07:21:39;20.30;99.90
59469;DHT22;45277;52.768;18.262;2023-09-08T07:23:10;20.30;99.90
59469;DHT22;45277;52.768;18.262;2023-09-08T07:24:42;20.40;99.90
59469;DHT22;45277;52.768;18.262;2023-09-08T07:26:13;20.60;99.90
59469;DHT22;45277;52.768;18.262;2023-09-08T07:27:45;20.70;99.90
59469;DHT22;45277;52.768;18.262;2023-09-08T07:29:17;20.70;99.90
59469;DHT22;45277;52.768;18.262;2023-09-08T07:30:48;20.80;99.90
59469;DHT22;45277;52.768;18.262;2023-09-08T07:32:20;20.80;99.90
59469;DHT22;45277;52.768;18.262;2023-09-08T07:33:51;20.90;99.90
59469;DHT22;45277;52.768;18.262;2023-09-08T07:35:23;21.00;99.90
59469;DHT22;45277;52.768;18.262;2023-09-08T07:36:55;21.10;99.90
59469;DHT22;45277;52.768;18.262;2023-09-08T07:38:27;21.20;99.90
59469;DHT22;45277;52.768;18.262;2023-09-08T07:39:58;21.30;99.90
59469;DHT22;45277;52.768;18.262;2023-09-08T07:41:31;21.40;99.90
59469;DHT22;45277;52.768;18.262;2023-09-08T07:43:02;21.60;99.90
59469;DHT22;45277;52.768;18.262;2023-09-08T07:44:34;21.80;99.90
59469;DHT22;45277;52.768;18.262;2023-09-08T07:46:05;21.90;99.90
59469;DHT22;45277;52.768;18.262;2023-09-08T07:47:37;22.00;99.90
59469;DHT22;45277;52.768;18.262;2023-09-08T07:49:09;22.10;99.90
59469;DHT22;45277;52.768;18.262;2023-09-08T07:50:41;22.20;99.90
59469;DHT22;45277;52.768;18.262;2023-09-08T07:52:12;22.30;99.90
59469;DHT22;45277;52.768;18.262;2023-09-08T07:53:44;22.30;99.90
59469;DHT22;45277;52.768;18.262;2023-09-08T07:55:16;22.40;99.90
59469;DHT22;45277;52.768;18.262;2023-09-08T07:56:47;22.60;99.90
59469;DHT22;45277;52.768;18.262;2023-09-08T07:58:19;22.60;99.90
59469;DHT22;45277;52.768;18.262;2023-09-08T07:59:50;22.80;99.90
59469;DHT22;45277;52.768;18.262;2023-09-08T08:01:22;22.90;99.90
59469;DHT22;45277;52.768;18.262;2023-09-08T08:02:55;23.00;99.90
59469;DHT22;45277;52.768;18.262;2023-09-08T08:04:27;23.10;99.90
59469;DHT22;45277;52.768;18.262;2023-09-08T08:05:59;23.20;99.90
59469;DHT22;45277;52.768;18.262;2023-09-08T08:07:30;23.30;99.90
59469;DHT22;45277;52.768;18.262;2023-09-08T08:09:02;23.40;99.60
59469;DHT22;45277;52.768;18.262;2023-09-08T08:10:34;23.40;95.90
59469;DHT22;45277;52.768;18.262;2023-09-08T08:12:06;23.40;92.30
59469;DHT22;45277;52.768;18.262;2023-09-08T08:13:38;23.50;93.30
59469;DHT22;45277;52.768;18.262;2023-09-08T08:15:10;23.60;91.00
59469;DHT22;45277;52.768;18.262;2023-09-08T08:16:42;23.70;72.50
59469;DHT22;45277;52.768;18.262;2023-09-08T08:18:14;23.70;62.40
59469;DHT22;45277;52.768;18.262;2023-09-08T08:19:45;23.80;52.60
59469;DHT22;45277;52.768;18.262;2023-09-08T08:21:18;23.90;46.80
59469;DHT22;45277;52.768;18.262;2023-09-08T08:22:49;23.90;44.10
59469;DHT22;45277;52.768;18.262;2023-09-08T08:24:24;24.00;58.20
59469;DHT22;45277;52.768;18.262;2023-09-08T08:25:56;24.10;62.70
59469;DHT22;45277;52.768;18.262;2023-09-08T08:27:28;24.20;60.20
59469;DHT22;45277;52.768;18.262;2023-09-08T08:29:00;24.30;62.90
59469;DHT22;45277;52.768;18.262;2023-09-08T08:30:31;24.40;61.30
59469;DHT22;45277;52.768;18.262;2023-09-08T08:32:04;24.50;42.20
59469;DHT22;45277;52.768;18.262;2023-09-08T08:33:35;24.60;32.70
59469;DHT22;45277;52.768;18.262;2023-09-08T08:35:07;24.60;23.60
59469;DHT22;45277;52.768;18.262;2023-09-08T08:36:38;24.70;21.80
59469;DHT22;45277;52.768;18.262;2023-09-08T08:38:10;24.80;14.70
59469;DHT22;45277;52.768;18.262;2023-09-08T08:39:41;24.80;20.60
59469;DHT22;45277;52.768;18.262;2023-09-08T08:41:13;24.80;24.80
59469;DHT22;45277;52.768;18.262;2023-09-08T08:42:45;25.00;25.70
59469;DHT22;45277;52.768;18.262;2023-09-08T08:44:17;25.00;21.30
59469;DHT22;45277;52.768;18.262;2023-09-08T08:45:50;25.00;23.90
59469;DHT22;45277;52.768;18.262;2023-09-08T08:47:23;25.00;25.00
59469;DHT22;45277;52.768;18.262;2023-09-08T08:48:56;25.20;16.20
59469;DHT22;45277;52.768;18.262;2023-09-08T08:50:30;25.40;13.00
59469;DHT22;45277;52.768;18.262;2023-09-08T08:52:04;25.40;13.50
59469;DHT22;45277;52.768;18.262;2023-09-08T08:53:39;25.40;7.90
59469;DHT22;45277;52.768;18.262;2023-09-08T08:55:12;25.40;4.20
59469;DHT22;45277;52.768;18.262;2023-09-08T08:56:44;25.40;5.30
59469;DHT22;45277;52.768;18.262;2023-09-08T08:58:15;25.50;16.50
59469;DHT22;45277;52.768;18.262;2023-09-08T08:59:52;25.60;12.70
59469;DHT22;45277;52.768;18.262;2023-09-08T09:01:26;25.70;11.70
59469;DHT22;45277;52.768;18.262;2023-09-08T09:02:58;25.70;14.60
59469;DHT22;45277;52.768;18.262;2023-09-08T09:04:31;25.80;11.70
59469;DHT22;45277;52.768;18.262;2023-09-08T09:06:03;25.90;8.30
59469;DHT22;45277;52.768;18.262;2023-09-08T09:07:35;26.00;8.40
59469;DHT22;45277;52.768;18.262;2023-09-08T09:09:06;26.10;1.00
59469;DHT22;45277;52.768;18.262;2023-09-08T09:10:39;26.20;1.00
59469;DHT22;45277;52.768;18.262;2023-09-08T09:12:11;26.10;1.00
59469;DHT22;45277;52.768;18.262;2023-09-08T09:13:42;26.20;1.00
59469;DHT22;45277;52.768;18.262;2023-09-08T09:15:14;26.20;1.00
59469;DHT22;45277;52.768;18.262;2023-09-08T09:16:46;26.20;1.00
59469;DHT22;45277;52.768;18.262;2023-09-08T09:18:19;26.30;1.00
59469;DHT22;45277;52.768;18.262;2023-09-08T09:19:54;26.30;1.00
59469;DHT22;45277;52.768;18.262;2023-09-08T09:21:47;26.30;1.00
59469;DHT22;45277;52.768;18.262;2023-09-08T09:23:33;26.30;1.00
59469;DHT22;45277;52.768;18.262;2023-09-08T09:25:05;26.40;1.00
59469;DHT22;45277;52.768;18.262;2023-09-08T09:26:38;26.40;1.00
59469;DHT22;45277;52.768;18.262;2023-09-08T09:28:10;26.50;1.00
59469;DHT22;45277;52.768;18.262;2023-09-08T09:29:47;26.60;1.00
59469;DHT22;45277;52.768;18.262;2023-09-08T09:31:18;26.60;1.00
59469;DHT22;45277;52.768;18.262;2023-09-08T09:33:03;26.60;1.00
59469;DHT22;45277;52.768;18.262;2023-09-08T09:34:35;26.70;1.00